sensor_id;sensor_type;location;lat;lon;timestamp;temperature;humidity
21216;DHT22;10765;50.954;5.322;2023-05-07T00:00:48;14.30;99.90
21216;DHT22;10765;50.954;5.322;2023-05-07T00:03:15;14.50;1.00
21216;DHT22;10765;50.954;5.322;2023-05-07T00:05:42;14.60;1.00
21216;DHT22;10765;50.954;5.322;2023-05-07T00:08:10;14.60;1.00
21216;DHT22;10765;50.954;5.322;2023-05-07T00:10:37;14.70;99.90
21216;DHT22;10765;50.954;5.322;2023-05-07T00:13:04;14.80;99.90
21216;DHT22;10765;50.954;5.322;2023-05-07T00:15:31;14.90;1.00
21216;DHT22;10765;50.954;5.322;2023-05-07T00:17:58;14.90;1.00
21216;DHT22;10765;50.954;5.322;2023-05-07T00:20:25;15.00;61.10
21216;DHT22;10765;50.954;5.322;2023-05-07T00:22:52;15.00;99.90
21216;DHT22;10765;50.954;5.322;2023-05-07T00:25:20;15.00;99.90
21216;DHT22;10765;50.954;5.322;2023-05-07T00:27:47;15.00;99.90
21216;DHT22;10765;50.954;5.322;2023-05-07T00:30:14;15.00;1.00
21216;DHT22;10765;50.954;5.322;2023-05-07T00:32:41;15.10;1.00
21216;DHT22;10765;50.954;5.322;2023-05-07T00:35:11;15.10;99.90
21216;DHT22;10765;50.954;5.322;2023-05-07T00:37:38;15.20;99.90
21216;DHT22;10765;50.954;5.322;2023-05-07T00:40:06;15.20;99.90
21216;DHT22;10765;50.954;5.322;2023-05-07T00:42:35;15.20;99.90
21216;DHT22;10765;50.954;5.322;2023-05-07T00:45:02;15.20;99.90
21216;DHT22;10765;50.954;5.322;2023-05-07T00:47:29;15.20;99.90
21216;DHT22;10765;50.954;5.322;2023-05-07T00:49:57;15.20;99.90
21216;DHT22;10765;50.954;5.322;2023-05-07T00:52:25;15.20;99.90
21216;DHT22;10765;50.954;5.322;2023-05-07T00:54:53;15.20;99.90
21216;DHT22;10765;50.954;5.322;2023-05-07T00:57:21;15.20;1.00
21216;DHT22;10765;50.954;5.322;2023-05-07T00:59:51;15.10;1.00
21216;DHT22;10765;50.954;5.322;2023-05-07T01:02:18;15.00;24.00
21216;DHT22;10765;50.954;5.322;2023-05-07T01:04:45;15.00;1.00
21216;DHT22;10765;50.954;5.322;2023-05-07T01:07:12;15.00;47.10
21216;DHT22;10765;50.954;5.322;2023-05-07T01:09:39;15.20;99.90
21216;DHT22;10765;50.954;5.322;2023-05-07T01:12:07;15.20;99.90
21216;DHT22;10765;50.954;5.322;2023-05-07T01:14:34;15.20;99.90
21216;DHT22;10765;50.954;5.322;2023-05-07T01:17:03;15.20;99.90
21216;DHT22;10765;50.954;5.322;2023-05-07T01:19:30;15.10;99.90
21216;DHT22;10765;50.954;5.322;2023-05-07T01:22:03;15.00;1.00
21216;DHT22;10765;50.954;5.322;2023-05-07T01:24:32;15.00;1.00
21216;DHT22;10765;50.954;5.322;2023-05-07T01:26:59;15.00;93.70
21216;DHT22;10765;50.954;5.322;2023-05-07T01:29:28;14.90;1.00
21216;DHT22;10765;50.954;5.322;2023-05-07T01:31:57;15.00;1.00
21216;DHT22;10765;50.954;5.322;2023-05-07T01:34:25;15.00;90.70
21216;DHT22;10765;50.954;5.322;2023-05-07T01:36:54;15.00;1.00
21216;DHT22;10765;50.954;5.322;2023-05-07T01:39:25;15.00;1.00
21216;DHT22;10765;50.954;5.322;2023-05-07T01:41:54;14.90;1.00
21216;DHT22;10765;50.954;5.322;2023-05-07T01:44:22;14.90;99.90
21216;DHT22;10765;50.954;5.322;2023-05-07T01:46:49;15.00;99.90
21216;DHT22;10765;50.954;5.322;2023-05-07T01:49:16;14.80;99.90
21216;DHT22;10765;50.954;5.322;2023-05-07T01:51:43;14.70;1.00
21216;DHT22;10765;50.954;5.322;2023-05-07T01:54:10;14.50;1.00
21216;DHT22;10765;50.954;5.322;2023-05-07T01:56:37;14.30;99.90
21216;DHT22;10765;50.954;5.322;2023-05-07T01:59:05;14.30;1.00
21216;DHT22;10765;50.954;5.322;2023-05-07T02:01:32;14.40;99.90
21216;DHT22;10765;50.954;5.322;2023-05-07T02:03:59;14.60;1.00
21216;DHT22;10765;50.954;5.322;2023-05-07T02:06:26;14.80;99.90
21216;DHT22;10765;50.954;5.322;2023-05-07T02:08:53;14.90;99.90
21216;DHT22;10765;50.954;5.322;2023-05-07T02:11:20;14.90;1.00
21216;DHT22;10765;50.954;5.322;2023-05-07T02:13:47;14.90;99.90
21216;DHT22;10765;50.954;5.322;2023-05-07T02:16:15;14.90;1.00
21216;DHT22;10765;50.954;5.322;2023-05-07T02:18:42;14.80;1.00
21216;DHT22;10765;50.954;5.322;2023-05-07T02:21:09;14.80;99.90
21216;DHT22;10765;50.954;5.322;2023-05-07T02:23:35;14.70;92.90
21216;DHT22;10765;50.954;5.322;2023-05-07T02:26:04;14.60;99.90
21216;DHT22;10765;50.954;5.322;2023-05-07T02:28:31;14.80;99.90
21216;DHT22;10765;50.954;5.322;2023-05-07T02:30:58;14.80;99.90
21216;DHT22;10765;50.954;5.322;2023-05-07T02:33:27;14.80;1.00
21216;DHT22;10765;50.954;5.322;2023-05-07T02:35:54;14.90;99.90
21216;DHT22;10765;50.954;5.322;2023-05-07T02:38:21;15.00;1.00
21216;DHT22;10765;50.954;5.322;2023-05-07T02:40:48;15.00;1.00
21216;DHT22;10765;50.954;5.322;2023-05-07T02:43:15;14.90;99.90
21216;DHT22;10765;50.954;5.322;2023-05-07T02:45:42;15.00;1.00
21216;DHT22;10765;50.954;5.322;2023-05-07T02:48:09;15.00;1.00
21216;DHT22;10765;50.954;5.322;2023-05-07T02:50:38;15.00;99.90
21216;DHT22;10765;50.954;5.322;2023-05-07T02:53:04;15.00;1.00
21216;DHT22;10765;50.954;5.322;2023-05-07T02:55:32;14.90;1.00
21216;DHT22;10765;50.954;5.322;2023-05-07T02:57:59;14.90;1.00
21216;DHT22;10765;50.954;5.322;2023-05-07T03:00:25;14.90;1.00
21216;DHT22;10765;50.954;5.322;2023-05-07T03:02:52;14.70;1.00
21216;DHT22;10765;50.954;5.322;2023-05-07T03:05:19;14.60;1.00
21216;DHT22;10765;50.954;5.322;2023-05-07T03:07:47;14.50;1.00
21216;DHT22;10765;50.954;5.322;2023-05-07T03:10:14;14.60;1.00
21216;DHT22;10765;50.954;5.322;2023-05-07T03:12:41;14.60;1.00
21216;DHT22;10765;50.954;5.322;2023-05-07T03:15:09;14.60;99.90
21216;DHT22;10765;50.954;5.322;2023-05-07T03:17:37;14.60;1.00
21216;DHT22;10765;50.954;5.322;2023-05-07T03:20:05;14.60;1.00
21216;DHT22;10765;50.954;5.322;2023-05-07T03:22:32;14.50;99.90
21216;DHT22;10765;50.954;5.322;2023-05-07T03:25:00;14.40;1.00
21216;DHT22;10765;50.954;5.322;2023-05-07T03:27:27;14.60;99.90
21216;DHT22;10765;50.954;5.322;2023-05-07T03:29:54;14.60;1.00
21216;DHT22;10765;50.954;5.322;2023-05-07T03:32:21;14.70;99.90
21216;DHT22;10765;50.954;5.322;2023-05-07T03:34:48;14.70;99.90
21216;DHT22;10765;50.954;5.322;2023-05-07T03:37:15;14.80;1.00
21216;DHT22;10765;50.954;5.322;2023-05-07T03:39:42;14.60;99.90
21216;DHT22;10765;50.954;5.322;2023-05-07T03:42:10;14.60;1.00
21216;DHT22;10765;50.954;5.322;2023-05-07T03:44:37;14.50;99.90
21216;DHT22;10765;50.954;5.322;2023-05-07T03:47:04;14.60;1.00
21216;DHT22;10765;50.954;5.322;2023-05-07T03:49:31;14.70;99.90
21216;DHT22;10765;50.954;5.322;2023-05-07T03:51:58;14.80;99.90
21216;DHT22;10765;50.954;5.322;2023-05-07T03:54:24;14.90;1.00
21216;DHT22;10765;50.954;5.322;2023-05-07T03:56:51;14.90;1.00
21216;DHT22;10765;50.954;5.322;2023-05-07T03:59:19;15.00;99.90
21216;DHT22;10765;50.954;5.322;2023-05-07T04:01:46;15.00;1.00
21216;DHT22;10765;50.954;5.322;2023-05-07T04:04:14;14.90;1.00
21216;DHT22;10765;50.954;5.322;2023-05-07T04:06:41;14.90;1.00
21216;DHT22;10765;50.954;5.322;2023-05-07T04:09:08;15.00;99.90
21216;DHT22;10765;50.954;5.322;2023-05-07T04:11:35;15.00;99.90
21216;DHT22;10765;50.954;5.322;2023-05-07T04:14:02;14.90;1.00
21216;DHT22;10765;50.954;5.322;2023-05-07T04:16:30;14.90;1.00
21216;DHT22;10765;50.954;5.322;2023-05-07T04:18:57;15.00;78.90
21216;DHT22;10765;50.954;5.322;2023-05-07T04:21:24;15.10;1.00
21216;DHT22;10765;50.954;5.322;2023-05-07T04:23:52;15.00;99.90
21216;DHT22;10765;50.954;5.322;2023-05-07T04:26:18;14.90;99.90
21216;DHT22;10765;50.954;5.322;2023-05-07T04:28:46;14.90;99.90
21216;DHT22;10765;50.954;5.322;2023-05-07T04:31:13;14.80;1.00
21216;DHT22;10765;50.954;5.322;2023-05-07T04:33:42;14.90;1.00
21216;DHT22;10765;50.954;5.322;2023-05-07T04:36:09;14.90;1.00
21216;DHT22;10765;50.954;5.322;2023-05-07T04:38:36;14.90;1.00
21216;DHT22;10765;50.954;5.322;2023-05-07T04:41:05;15.00;99.90
21216;DHT22;10765;50.954;5.322;2023-05-07T04:43:32;15.10;1.00
21216;DHT22;10765;50.954;5.322;2023-05-07T04:45:59;15.20;1.00
21216;DHT22;10765;50.954;5.322;2023-05-07T04:48:26;15.30;1.00
21216;DHT22;10765;50.954;5.322;2023-05-07T04:50:56;15.30;99.90
21216;DHT22;10765;50.954;5.322;2023-05-07T04:53:22;15.30;99.90
21216;DHT22;10765;50.954;5.322;2023-05-07T04:55:55;15.30;99.90
21216;DHT22;10765;50.954;5.322;2023-05-07T04:58:22;15.30;99.90
21216;DHT22;10765;50.954;5.322;2023-05-07T05:00:49;15.30;99.90
21216;DHT22;10765;50.954;5.322;2023-05-07T05:03:16;15.30;99.90
21216;DHT22;10765;50.954;5.322;2023-05-07T05:05:43;15.40;99.90
21216;DHT22;10765;50.954;5.322;2023-05-07T05:08:11;15.50;99.90
21216;DHT22;10765;50.954;5.322;2023-05-07T05:10:38;15.50;1.00
21216;DHT22;10765;50.954;5.322;2023-05-07T05:13:06;15.70;36.70
21216;DHT22;10765;50.954;5.322;2023-05-07T05:15:33;15.80;99.90
21216;DHT22;10765;50.954;5.322;2023-05-07T05:18:00;15.90;99.90
21216;DHT22;10765;50.954;5.322;2023-05-07T05:20:27;16.00;1.00
21216;DHT22;10765;50.954;5.322;2023-05-07T05:22:54;16.00;1.00
21216;DHT22;10765;50.954;5.322;2023-05-07T05:25:22;16.00;1.00
21216;DHT22;10765;50.954;5.322;2023-05-07T05:27:49;16.10;1.00
21216;DHT22;10765;50.954;5.322;2023-05-07T05:30:16;16.20;1.00
21216;DHT22;10765;50.954;5.322;2023-05-07T05:32:43;16.30;1.00
21216;DHT22;10765;50.954;5.322;2023-05-07T05:35:10;16.40;99.90
21216;DHT22;10765;50.954;5.322;2023-05-07T05:37:36;16.50;99.90
21216;DHT22;10765;50.954;5.322;2023-05-07T05:40:04;16.60;99.90
21216;DHT22;10765;50.954;5.322;2023-05-07T05:42:32;16.80;99.90
21216;DHT22;10765;50.954;5.322;2023-05-07T05:44:59;16.90;99.90
21216;DHT22;10765;50.954;5.322;2023-05-07T05:47:26;17.10;1.00
21216;DHT22;10765;50.954;5.322;2023-05-07T05:49:53;17.40;1.00
21216;DHT22;10765;50.954;5.322;2023-05-07T05:52:20;17.50;1.00
21216;DHT22;10765;50.954;5.322;2023-05-07T05:54:49;17.70;1.00
21216;DHT22;10765;50.954;5.322;2023-05-07T05:57:16;17.80;99.90
21216;DHT22;10765;50.954;5.322;2023-05-07T05:59:44;17.80;99.90
21216;DHT22;10765;50.954;5.322;2023-05-07T06:02:12;17.90;99.90
21216;DHT22;10765;50.954;5.322;2023-05-07T06:04:39;17.90;99.90
21216;DHT22;10765;50.954;5.322;2023-05-07T06:07:08;17.90;99.90
21216;DHT22;10765;50.954;5.322;2023-05-07T06:09:35;18.00;99.90
21216;DHT22;10765;50.954;5.322;2023-05-07T06:12:01;18.20;99.90
21216;DHT22;10765;50.954;5.322;2023-05-07T06:14:28;18.30;99.90
21216;DHT22;10765;50.954;5.322;2023-05-07T06:16:57;18.30;99.90
21216;DHT22;10765;50.954;5.322;2023-05-07T06:19:24;18.30;99.90
21216;DHT22;10765;50.954;5.322;2023-05-07T06:21:52;18.50;99.90
21216;DHT22;10765;50.954;5.322;2023-05-07T06:24:19;18.60;99.90
21216;DHT22;10765;50.954;5.322;2023-05-07T06:26:45;19.00;89.20
21216;DHT22;10765;50.954;5.322;2023-05-07T06:29:12;19.20;26.00
21216;DHT22;10765;50.954;5.322;2023-05-07T06:31:39;19.40;1.00
21216;DHT22;10765;50.954;5.322;2023-05-07T06:34:08;19.30;1.00
21216;DHT22;10765;50.954;5.322;2023-05-07T06:36:35;19.40;1.00
21216;DHT22;10765;50.954;5.322;2023-05-07T06:39:02;19.60;1.00
21216;DHT22;10765;50.954;5.322;2023-05-07T06:41:29;19.70;1.00
21216;DHT22;10765;50.954;5.322;2023-05-07T06:43:56;19.80;1.00
21216;DHT22;10765;50.954;5.322;2023-05-07T06:46:23;19.90;1.00
21216;DHT22;10765;50.954;5.322;2023-05-07T06:48:49;20.00;1.00
21216;DHT22;10765;50.954;5.322;2023-05-07T06:51:19;19.90;1.00
21216;DHT22;10765;50.954;5.322;2023-05-07T06:53:46;19.80;1.00
21216;DHT22;10765;50.954;5.322;2023-05-07T06:56:12;19.70;1.00
21216;DHT22;10765;50.954;5.322;2023-05-07T06:58:39;19.60;1.00
21216;DHT22;10765;50.954;5.322;2023-05-07T07:01:06;19.70;1.00
21216;DHT22;10765;50.954;5.322;2023-05-07T07:03:33;19.80;1.00
21216;DHT22;10765;50.954;5.322;2023-05-07T07:06:00;20.10;1.00
21216;DHT22;10765;50.954;5.322;2023-05-07T07:08:30;20.40;1.00
21216;DHT22;10765;50.954;5.322;2023-05-07T07:10:57;20.40;1.00
21216;DHT22;10765;50.954;5.322;2023-05-07T07:13:24;20.40;1.00
21216;DHT22;10765;50.954;5.322;2023-05-07T07:15:51;20.60;1.00
21216;DHT22;10765;50.954;5.322;2023-05-07T07:18:18;20.70;1.00
21216;DHT22;10765;50.954;5.322;2023-05-07T07:20:45;20.80;1.00
21216;DHT22;10765;50.954;5.322;2023-05-07T07:23:12;21.20;1.00
21216;DHT22;10765;50.954;5.322;2023-05-07T07:25:40;21.40;1.00
21216;DHT22;10765;50.954;5.322;2023-05-07T07:28:07;21.40;1.00
21216;DHT22;10765;50.954;5.322;2023-05-07T07:30:34;21.50;1.00
21216;DHT22;10765;50.954;5.322;2023-05-07T07:33:01;21.50;1.00
21216;DHT22;10765;50.954;5.322;2023-05-07T07:35:28;21.40;1.00
21216;DHT22;10765;50.954;5.322;2023-05-07T07:37:55;21.40;1.00
21216;DHT22;10765;50.954;5.322;2023-05-07T07:40:22;21.40;1.00
21216;DHT22;10765;50.954;5.322;2023-05-07T07:42:52;21.40;1.00
21216;DHT22;10765;50.954;5.322;2023-05-07T07:45:19;21.50;1.00
21216;DHT22;10765;50.954;5.322;2023-05-07T07:47:46;21.60;1.00
21216;DHT22;10765;50.954;5.322;2023-05-07T07:50:13;21.70;1.00
21216;DHT22;10765;50.954;5.322;2023-05-07T07:52:40;22.00;1.00
21216;DHT22;10765;50.954;5.322;2023-05-07T07:55:08;22.20;1.00
21216;DHT22;10765;50.954;5.322;2023-05-07T07:57:35;22.40;1.00
21216;DHT22;10765;50.954;5.322;2023-05-07T08:00:04;22.30;1.00
21216;DHT22;10765;50.954;5.322;2023-05-07T08:02:32;22.30;1.00
21216;DHT22;10765;50.954;5.322;2023-05-07T08:04:59;22.60;1.00
21216;DHT22;10765;50.954;5.322;2023-05-07T08:07:26;22.70;1.00
21216;DHT22;10765;50.954;5.322;2023-05-07T08:09:53;22.80;1.00
21216;DHT22;10765;50.954;5.322;2023-05-07T08:12:20;22.80;1.00
21216;DHT22;10765;50.954;5.322;2023-05-07T08:14:47;22.70;1.00
21216;DHT22;10765;50.954;5.322;2023-05-07T08:17:15;23.10;1.00
21216;DHT22;10765;50.954;5.322;2023-05-07T08:19:42;23.30;1.00
21216;DHT22;10765;50.954;5.322;2023-05-07T08:22:09;23.30;1.00
21216;DHT22;10765;50.954;5.322;2023-05-07T08:24:36;24.00;1.00
21216;DHT22;10765;50.954;5.322;2023-05-07T08:27:03;24.70;1.00
21216;DHT22;10765;50.954;5.322;2023-05-07T08:29:30;24.60;1.00
21216;DHT22;10765;50.954;5.322;2023-05-07T08:31:57;24.20;1.00
21216;DHT22;10765;50.954;5.322;2023-05-07T08:34:25;23.90;1.00
21216;DHT22;10765;50.954;5.322;2023-05-07T08:36:52;23.30;1.00
21216;DHT22;10765;50.954;5.322;2023-05-07T08:39:19;23.40;1.00
21216;DHT22;10765;50.954;5.322;2023-05-07T08:41:46;23.30;1.00
21216;DHT22;10765;50.954;5.322;2023-05-07T08:44:16;23.20;1.00
21216;DHT22;10765;50.954;5.322;2023-05-07T08:46:45;23.00;1.00
21216;DHT22;10765;50.954;5.322;2023-05-07T08:49:13;22.80;1.00
21216;DHT22;10765;50.954;5.322;2023-05-07T08:51:42;23.00;1.00
21216;DHT22;10765;50.954;5.322;2023-05-07T08:54:10;23.20;1.00
21216;DHT22;10765;50.954;5.322;2023-05-07T08:56:38;23.10;1.00
21216;DHT22;10765;50.954;5.322;2023-05-07T08:59:05;23.60;1.00
21216;DHT22;10765;50.954;5.322;2023-05-07T09:01:32;24.20;1.00
21216;DHT22;10765;50.954;5.322;2023-05-07T09:04:01;25.20;1.00
21216;DHT22;10765;50.954;5.322;2023-05-07T09:06:28;25.80;1.00
21216;DHT22;10765;50.954;5.322;2023-05-07T09:08:56;26.60;1.00
21216;DHT22;10765;50.954;5.322;2023-05-07T09:11:24;27.30;1.00
21216;DHT22;10765;50.954;5.322;2023-05-07T09:13:53;27.70;1.00
21216;DHT22;10765;50.954;5.322;2023-05-07T09:16:21;27.30;1.00
21216;DHT22;10765;50.954;5.322;2023-05-07T09:18:52;27.30;1.00
21216;DHT22;10765;50.954;5.322;2023-05-07T09:21:19;27.00;1.00
21216;DHT22;10765;50.954;5.322;2023-05-07T09:23:49;26.40;1.00
21216;DHT22;10765;50.954;5.322;2023-05-07T09:26:20;26.50;1.00
21216;DHT22;10765;50.954;5.322;2023-05-07T09:28:47;26.40;1.00
21216;DHT22;10765;50.954;5.322;2023-05-07T09:31:14;27.50;1.00
21216;DHT22;10765;50.954;5.322;2023-05-07T09:33:41;28.70;1.00
21216;DHT22;10765;50.954;5.322;2023-05-07T09:36:09;28.20;1.00
21216;DHT22;10765;50.954;5.322;2023-05-07T09:38:37;28.40;1.00
21216;DHT22;10765;50.954;5.322;2023-05-07T09:41:05;28.10;1.00
21216;DHT22;10765;50.954;5.322;2023-05-07T09:43:34;27.60;1.00
21216;DHT22;10765;50.954;5.322;2023-05-07T09:46:07;28.10;1.00
21216;DHT22;10765;50.954;5.322;2023-05-07T09:48:38;29.30;1.00
21216;DHT22;10765;50.954;5.322;2023-05-07T09:51:11;29.90;1.00
21216;DHT22;10765;50.954;5.322;2023-05-07T09:53:42;28.60;1.00
21216;DHT22;10765;50.954;5.322;2023-05-07T09:56:12;28.00;1.00
21216;DHT22;10765;50.954;5.322;2023-05-07T09:58:41;27.80;1.00
21216;DHT22;10765;50.954;5.322;2023-05-07T10:01:10;27.50;1.00
21216;DHT22;10765;50.954;5.322;2023-05-07T10:03:39;27.00;1.00
21216;DHT22;10765;50.954;5.322;2023-05-07T10:06:08;26.90;1.00
21216;DHT22;10765;50.954;5.322;2023-05-07T10:08:35;26.00;1.00
21216;DHT22;10765;50.954;5.322;2023-05-07T10:11:04;24.80;1.00
21216;DHT22;10765;50.954;5.322;2023-05-07T10:13:32;25.00;1.00
21216;DHT22;10765;50.954;5.322;2023-05-07T10:16:01;24.10;1.00
21216;DHT22;10765;50.954;5.322;2023-05-07T10:18:30;24.20;1.00
21216;DHT22;10765;50.954;5.322;2023-05-07T10:21:02;24.50;1.00
21216;DHT22;10765;50.954;5.322;2023-05-07T10:23:30;24.10;1.00
21216;DHT22;10765;50.954;5.322;2023-05-07T10:25:59;23.90;1.00
21216;DHT22;10765;50.954;5.322;2023-05-07T10:28:27;24.00;1.00
21216;DHT22;10765;50.954;5.322;2023-05-07T10:31:08;23.50;1.00
21216;DHT22;10765;50.954;5.322;2023-05-07T10:33:39;23.20;1.00
21216;DHT22;10765;50.954;5.322;2023-05-07T10:36:06;22.60;1.00
21216;DHT22;10765;50.954;5.322;2023-05-07T10:38:33;22.40;1.00
21216;DHT22;10765;50.954;5.322;2023-05-07T10:41:01;22.20;1.00
21216;DHT22;10765;50.954;5.322;2023-05-07T10:43:42;22.40;1.00
21216;DHT22;10765;50.954;5.322;2023-05-07T10:46:15;22.50;1.00
21216;DHT22;10765;50.954;5.322;2023-05-07T10:49:07;22.10;1.00
21216;DHT22;10765;50.954;5.322;2023-05-07T10:51:36;22.50;1.00
21216;DHT22;10765;50.954;5.322;2023-05-07T10:54:25;22.50;1.00
21216;DHT22;10765;50.954;5.322;2023-05-07T10:56:51;21.90;1.00
21216;DHT22;10765;50.954;5.322;2023-05-07T10:59:35;21.80;1.00
21216;DHT22;10765;50.954;5.322;2023-05-07T11:02:09;21.70;1.00
21216;DHT22;10765;50.954;5.322;2023-05-07T11:04:37;21.70;1.00
21216;DHT22;10765;50.954;5.322;2023-05-07T11:07:26;21.90;1.00
21216;DHT22;10765;50.954;5.322;2023-05-07T11:10:04;21.90;1.00
21216;DHT22;10765;50.954;5.322;2023-05-07T11:12:50;21.70;1.00
21216;DHT22;10765;50.954;5.322;2023-05-07T11:15:40;21.50;1.00
21216;DHT22;10765;50.954;5.322;2023-05-07T11:18:11;21.10;1.00
21216;DHT22;10765;50.954;5.322;2023-05-07T11:20:55;21.20;1.00
21216;DHT22;10765;50.954;5.322;2023-05-07T11:26:46;20.70;1.00
21216;DHT22;10765;50.954;5.322;2023-05-07T11:29:16;20.70;1.00
21216;DHT22;10765;50.954;5.322;2023-05-07T11:31:43;20.60;1.00
21216;DHT22;10765;50.954;5.322;2023-05-07T11:34:11;20.40;1.00
21216;DHT22;10765;50.954;5.322;2023-05-07T11:36:42;20.50;99.90
21216;DHT22;10765;50.954;5.322;2023-05-07T11:39:26;20.30;99.90
21216;DHT22;10765;50.954;5.322;2023-05-07T11:41:54;20.20;99.90
21216;DHT22;10765;50.954;5.322;2023-05-07T11:44:21;19.80;99.90
21216;DHT22;10765;50.954;5.322;2023-05-07T11:46:48;19.60;1.00
21216;DHT22;10765;50.954;5.322;2023-05-07T11:49:17;19.80;99.90
21216;DHT22;10765;50.954;5.322;2023-05-07T11:51:44;19.30;99.90
21216;DHT22;10765;50.954;5.322;2023-05-07T11:54:15;19.40;1.00
21216;DHT22;10765;50.954;5.322;2023-05-07T11:56:44;19.50;1.00
21216;DHT22;10765;50.954;5.322;2023-05-07T11:59:16;19.70;99.90
21216;DHT22;10765;50.954;5.322;2023-05-07T12:01:45;19.90;1.00
21216;DHT22;10765;50.954;5.322;2023-05-07T12:04:12;20.10;1.00
21216;DHT22;10765;50.954;5.322;2023-05-07T12:06:40;20.30;99.90
21216;DHT22;10765;50.954;5.322;2023-05-07T12:09:07;20.30;99.90
21216;DHT22;10765;50.954;5.322;2023-05-07T12:11:37;20.00;99.90
21216;DHT22;10765;50.954;5.322;2023-05-07T12:14:06;19.40;99.90
21216;DHT22;10765;50.954;5.322;2023-05-07T12:16:33;19.60;1.00
21216;DHT22;10765;50.954;5.322;2023-05-07T12:19:00;19.50;99.90
21216;DHT22;10765;50.954;5.322;2023-05-07T12:21:27;19.40;99.90
21216;DHT22;10765;50.954;5.322;2023-05-07T12:23:56;19.20;99.90
21216;DHT22;10765;50.954;5.322;2023-05-07T12:26:23;19.50;99.90
21216;DHT22;10765;50.954;5.322;2023-05-07T12:28:50;19.40;99.90
21216;DHT22;10765;50.954;5.322;2023-05-07T12:31:17;19.70;99.90
21216;DHT22;10765;50.954;5.322;2023-05-07T12:33:45;19.50;99.90
21216;DHT22;10765;50.954;5.322;2023-05-07T12:36:13;19.70;99.90
21216;DHT22;10765;50.954;5.322;2023-05-07T12:38:40;20.10;99.90
21216;DHT22;10765;50.954;5.322;2023-05-07T12:41:10;20.20;99.90
21216;DHT22;10765;50.954;5.322;2023-05-07T12:43:38;20.10;65.00
21216;DHT22;10765;50.954;5.322;2023-05-07T12:46:06;19.90;28.90
21216;DHT22;10765;50.954;5.322;2023-05-07T12:48:33;19.70;30.60
21216;DHT22;10765;50.954;5.322;2023-05-07T12:51:01;19.90;99.90
21216;DHT22;10765;50.954;5.322;2023-05-07T12:53:29;20.40;99.90
21216;DHT22;10765;50.954;5.322;2023-05-07T12:55:58;20.60;1.00
21216;DHT22;10765;50.954;5.322;2023-05-07T12:58:28;20.40;1.00
21216;DHT22;10765;50.954;5.322;2023-05-07T13:00:56;20.30;1.00
21216;DHT22;10765;50.954;5.322;2023-05-07T13:03:29;20.50;1.00
21216;DHT22;10765;50.954;5.322;2023-05-07T13:06:01;20.80;1.00
21216;DHT22;10765;50.954;5.322;2023-05-07T13:08:30;20.90;1.00
21216;DHT22;10765;50.954;5.322;2023-05-07T13:10:58;21.00;1.00
21216;DHT22;10765;50.954;5.322;2023-05-07T13:13:30;21.00;1.00
21216;DHT22;10765;50.954;5.322;2023-05-07T13:15:57;20.90;1.00
21216;DHT22;10765;50.954;5.322;2023-05-07T13:18:25;21.10;1.00
21216;DHT22;10765;50.954;5.322;2023-05-07T13:20:52;21.30;1.00
21216;DHT22;10765;50.954;5.322;2023-05-07T13:23:19;21.10;1.00
21216;DHT22;10765;50.954;5.322;2023-05-07T13:25:46;21.20;1.00
21216;DHT22;10765;50.954;5.322;2023-05-07T13:28:13;21.60;1.00
21216;DHT22;10765;50.954;5.322;2023-05-07T13:30:41;21.50;1.00
21216;DHT22;10765;50.954;5.322;2023-05-07T13:33:08;21.50;1.00
21216;DHT22;10765;50.954;5.322;2023-05-07T13:35:35;21.50;1.00
21216;DHT22;10765;50.954;5.322;2023-05-07T13:38:03;21.50;1.00
21216;DHT22;10765;50.954;5.322;2023-05-07T13:40:29;21.20;1.00
21216;DHT22;10765;50.954;5.322;2023-05-07T13:42:57;21.30;1.00
21216;DHT22;10765;50.954;5.322;2023-05-07T13:45:26;21.20;1.00
21216;DHT22;10765;50.954;5.322;2023-05-07T13:47:56;21.20;1.00
21216;DHT22;10765;50.954;5.322;2023-05-07T13:50:25;21.20;1.00
21216;DHT22;10765;50.954;5.322;2023-05-07T13:52:52;21.40;1.00
21216;DHT22;10765;50.954;5.322;2023-05-07T13:55:20;21.60;1.00
21216;DHT22;10765;50.954;5.322;2023-05-07T13:57:53;21.60;1.00
21216;DHT22;10765;50.954;5.322;2023-05-07T14:00:20;21.60;1.00
21216;DHT22;10765;50.954;5.322;2023-05-07T14:02:47;21.60;1.00
21216;DHT22;10765;50.954;5.322;2023-05-07T14:05:16;21.70;1.00
21216;DHT22;10765;50.954;5.322;2023-05-07T14:07:43;21.50;1.00
21216;DHT22;10765;50.954;5.322;2023-05-07T14:10:10;21.30;1.00
21216;DHT22;10765;50.954;5.322;2023-05-07T14:12:39;21.50;1.00
21216;DHT22;10765;50.954;5.322;2023-05-07T14:15:07;21.80;1.00
21216;DHT22;10765;50.954;5.322;2023-05-07T14:17:34;21.90;1.00
21216;DHT22;10765;50.954;5.322;2023-05-07T14:20:01;21.90;1.00
21216;DHT22;10765;50.954;5.322;2023-05-07T14:22:30;21.60;1.00
21216;DHT22;10765;50.954;5.322;2023-05-07T14:24:57;21.70;1.00
21216;DHT22;10765;50.954;5.322;2023-05-07T14:27:23;21.80;1.00
21216;DHT22;10765;50.954;5.322;2023-05-07T14:29:51;22.10;1.00
21216;DHT22;10765;50.954;5.322;2023-05-07T14:32:18;21.90;1.00
21216;DHT22;10765;50.954;5.322;2023-05-07T14:34:45;22.00;1.00
21216;DHT22;10765;50.954;5.322;2023-05-07T14:37:12;21.90;1.00
21216;DHT22;10765;50.954;5.322;2023-05-07T14:39:41;22.00;1.00
21216;DHT22;10765;50.954;5.322;2023-05-07T14:42:08;21.90;1.00
21216;DHT22;10765;50.954;5.322;2023-05-07T14:44:35;21.70;1.00
21216;DHT22;10765;50.954;5.322;2023-05-07T14:47:02;21.10;1.00
21216;DHT22;10765;50.954;5.322;2023-05-07T14:49:29;21.30;1.00
21216;DHT22;10765;50.954;5.322;2023-05-07T14:51:57;21.30;1.00
21216;DHT22;10765;50.954;5.322;2023-05-07T14:54:25;21.40;1.00
21216;DHT22;10765;50.954;5.322;2023-05-07T14:56:54;21.30;1.00
21216;DHT22;10765;50.954;5.322;2023-05-07T14:59:21;21.20;1.00
21216;DHT22;10765;50.954;5.322;2023-05-07T15:01:50;21.30;1.00
21216;DHT22;10765;50.954;5.322;2023-05-07T15:04:17;21.50;1.00
21216;DHT22;10765;50.954;5.322;2023-05-07T15:06:44;21.40;1.00
21216;DHT22;10765;50.954;5.322;2023-05-07T15:09:11;21.40;1.00
21216;DHT22;10765;50.954;5.322;2023-05-07T15:11:38;21.30;1.00
21216;DHT22;10765;50.954;5.322;2023-05-07T15:14:07;21.20;1.00
21216;DHT22;10765;50.954;5.322;2023-05-07T15:16:34;21.10;1.00
21216;DHT22;10765;50.954;5.322;2023-05-07T15:19:00;21.20;1.00
21216;DHT22;10765;50.954;5.322;2023-05-07T15:21:27;21.10;1.00
21216;DHT22;10765;50.954;5.322;2023-05-07T15:23:56;21.10;1.00
21216;DHT22;10765;50.954;5.322;2023-05-07T15:26:23;20.80;1.00
21216;DHT22;10765;50.954;5.322;2023-05-07T15:28:50;20.70;1.00
21216;DHT22;10765;50.954;5.322;2023-05-07T15:31:18;20.80;1.00
21216;DHT22;10765;50.954;5.322;2023-05-07T15:33:45;21.10;1.00
21216;DHT22;10765;50.954;5.322;2023-05-07T15:36:13;21.00;1.00
21216;DHT22;10765;50.954;5.322;2023-05-07T15:38:39;21.10;1.00
21216;DHT22;10765;50.954;5.322;2023-05-07T15:41:06;20.90;1.00
21216;DHT22;10765;50.954;5.322;2023-05-07T15:43:43;21.00;1.00
21216;DHT22;10765;50.954;5.322;2023-05-07T15:46:10;21.10;1.00
21216;DHT22;10765;50.954;5.322;2023-05-07T15:48:39;21.10;1.00
21216;DHT22;10765;50.954;5.322;2023-05-07T15:51:06;21.10;1.00